^^
Your Local Weather - Clay, NY Station Historical Data
Daily Summary for February 4, 2018 Units:  Metric    English   Both
« Previous Day
Next Day »
Daily Weekly Monthly Yearly Custom
  High: Low: Average:
Temperature: 2.1 °C -1.2 °C 0 °C
Dew Point: -1.3 °C -10.6 °C -3.8 °C
Humidity: 93% 44% 78%
Wind Speed: 12.9km/h 0km/h 5.8km/h
Wind Gust: 27.4km/h - -
Wind- - South
Pressure: 1016.8 hPa 1003.9 hPa -
Precipitation: 0 mm    
Historical Graphs
 
 
Tabular Data for February 4, 2018
Time Temperature Dew Point Pressure Wind Wind Speed Wind Gust Humidity Rainfall Rate (Hourly) solar
00:02 -1 °C -9.2 °C 1016.8 hPa SSE 8 km/h 11.3 km/h 54% 0 mm 0 W/m2
00:08 -0.9 °C -9.3 °C 1016.8 hPa SSW 8 km/h 11.3 km/h 53% 0 mm 0 W/m2
00:13 -0.8 °C -9.4 °C 1016.8 hPa SE 8 km/h 16.1 km/h 52% 0 mm 0 W/m2
00:19 -0.7 °C -9.4 °C 1016.5 hPa SW 9.7 km/h 9.7 km/h 52% 0 mm 0 W/m2
00:25 -0.7 °C -9.4 °C 1016.5 hPa South 8 km/h 9.7 km/h 52% 0 mm 0 W/m2
00:32 -0.5 °C -9.2 °C 1016.5 hPa SSW 9.7 km/h 11.3 km/h 52% 0 mm 0 W/m2
00:38 -0.4 °C -9.1 °C 1016.5 hPa SW 9.7 km/h 11.3 km/h 52% 0 mm 0 W/m2
00:43 -0.3 °C -9.3 °C 1016.5 hPa South 9.7 km/h 9.7 km/h 51% 0 mm 0 W/m2
00:49 -0.3 °C -10 °C 1016.5 hPa South 12.9 km/h 12.9 km/h 48% 0 mm 0 W/m2
00:55 -0.3 °C -10.1 °C 1016.1 hPa South 11.3 km/h 12.9 km/h 48% 0 mm 0 W/m2
01:02 -0.3 °C -10.3 °C 1015.8 hPa SSE 9.7 km/h 12.9 km/h 47% 0 mm 0 W/m2
01:08 -0.3 °C -10.3 °C 1015.8 hPa SSE 9.7 km/h 17.7 km/h 47% 0 mm 0 W/m2
01:14 -0.3 °C -10.3 °C 1015.8 hPa South 9.7 km/h 11.3 km/h 47% 0 mm 0 W/m2
01:20 -0.4 °C -10.3 °C 1015.8 hPa South 9.7 km/h 9.7 km/h 47% 0 mm 0 W/m2
01:26 -0.4 °C -10.6 °C 1015.8 hPa SSE 8 km/h 12.9 km/h 46% 0 mm 0 W/m2
01:32 -0.3 °C -10.6 °C 1015.8 hPa SSE 8 km/h 8 km/h 46% 0 mm 0 W/m2
01:38 -0.3 °C -10.6 °C 1015.5 hPa South 6.4 km/h 8 km/h 46% 0 mm 0 W/m2
01:44 -0.4 °C -10.6 °C 1015.5 hPa SSE 4.8 km/h 6.4 km/h 46% 0 mm 0 W/m2
01:50 -0.4 °C -10.6 °C 1015.5 hPa South 4.8 km/h 4.8 km/h 46% 0 mm 0 W/m2
01:56 -0.3 °C -10.3 °C 1014.8 hPa SSE 4.8 km/h 11.3 km/h 47% 0 mm 0 W/m2
02:02 -0.2 °C -10.2 °C 1015.1 hPa South 6.4 km/h 6.4 km/h 47% 0 mm 0 W/m2
02:08 -0.1 °C -10.3 °C 1014.8 hPa SSE 6.4 km/h 6.4 km/h 46% 0 mm 0 W/m2
02:14 0.1 °C -9.9 °C 1014.8 hPa SSE 8 km/h 11.3 km/h 47% 0 mm 0 W/m2
02:20 0.1 °C -9.9 °C 1014.4 hPa SSW 6.4 km/h 9.7 km/h 47% 0 mm 0 W/m2
02:26 0.2 °C -10.1 °C 1014.4 hPa South 6.4 km/h 9.7 km/h 46% 0 mm 0 W/m2
02:32 0.1 °C -10.2 °C 1014.4 hPa South 8 km/h 9.7 km/h 46% 0 mm 0 W/m2
02:38 0.1 °C -9.9 °C 1014.4 hPa South 6.4 km/h 9.7 km/h 47% 0 mm 0 W/m2
02:44 0.1 °C -10.2 °C 1014.4 hPa South 4.8 km/h 16.1 km/h 46% 0 mm 0 W/m2
02:50 0.3 °C -10 °C 1014.1 hPa SW 6.4 km/h 6.4 km/h 46% 0 mm 0 W/m2
02:56 0.4 °C -10.1 °C 1014.1 hPa South 8 km/h 11.3 km/h 45% 0 mm 0 W/m2
03:02 0.5 °C -10.1 °C 1014.1 hPa South 8 km/h 12.9 km/h 45% 0 mm 0 W/m2
03:08 0.6 °C -10 °C 1014.1 hPa SW 6.4 km/h 12.9 km/h 45% 0 mm 0 W/m2
03:14 0.7 °C -10.2 °C 1014.1 hPa South 6.4 km/h 14.5 km/h 44% 0 mm 0 W/m2
03:20 0.7 °C -10.2 °C 1013.8 hPa SSE 8 km/h 9.7 km/h 44% 0 mm 0 W/m2
03:26 0.7 °C -9.9 °C 1013.8 hPa South 8 km/h 9.7 km/h 45% 0 mm 0 W/m2
03:32 0.7 °C -9.9 °C 1013.8 hPa SW 6.4 km/h 9.7 km/h 45% 0 mm 0 W/m2
03:38 0.8 °C -9.6 °C 1013.8 hPa SSW 4.8 km/h 9.7 km/h 46% 0 mm 0 W/m2
03:44 1 °C -9.6 °C 1014.1 hPa SW 6.4 km/h 11.3 km/h 45% 0 mm 0 W/m2
03:50 1.3 °C -9.7 °C 1014.1 hPa SSE 8 km/h 8 km/h 44% 0 mm 0 W/m2
03:58 1.4 °C -9.6 °C 1013.8 hPa South 9.7 km/h 12.9 km/h 44% 0 mm 0 W/m2
04:04 1.4 °C -9.6 °C 1013.8 hPa South 8 km/h 9.7 km/h 44% 0 mm 0 W/m2
04:10 1.4 °C -9.2 °C 1013.8 hPa SW 8 km/h 9.7 km/h 45% 0 mm 0 W/m2
04:16 1.7 °C -9.3 °C 1013.8 hPa SSW 6.4 km/h 11.3 km/h 44% 0 mm 0 W/m2
04:22 1.9 °C -9.1 °C 1014.1 hPa South 11.3 km/h 27.4 km/h 44% 0 mm 0 W/m2
04:28 1.8 °C -9.2 °C 1014.1 hPa SW 11.3 km/h 27.4 km/h 44% 0 mm 0 W/m2
04:34 1.8 °C -8.9 °C 1013.8 hPa SW 11.3 km/h 12.9 km/h 45% 0 mm 0 W/m2
04:40 1.9 °C -8.6 °C 1013.8 hPa South 12.9 km/h 16.1 km/h 46% 0 mm 0 W/m2
04:46 2.1 °C -8.1 °C 1013.8 hPa SSW 12.9 km/h 16.1 km/h 47% 0 mm 0 W/m2
04:52 2 °C -7.9 °C 1013.8 hPa South 12.9 km/h 12.9 km/h 48% 0 mm 0 W/m2
04:58 2.1 °C -7.8 °C 1013.4 hPa South 11.3 km/h 12.9 km/h 48% 0 mm 0 W/m2
05:04 2 °C -7.3 °C 1013.4 hPa SSW 11.3 km/h 11.3 km/h 50% 0 mm 0 W/m2
05:10 2 °C -7.3 °C 1013.8 hPa SW 9.7 km/h 9.7 km/h 50% 0 mm 0 W/m2
05:16 2.1 °C -7.3 °C 1013.8 hPa SSW 9.7 km/h 9.7 km/h 50% 0 mm 0 W/m2
05:22 2 °C -7.1 °C 1013.8 hPa SW 8 km/h 11.3 km/h 51% 0 mm 0 W/m2
05:28 1.9 °C -7.2 °C 1013.8 hPa West 4.8 km/h 11.3 km/h 51% 0 mm 0 W/m2
05:34 2 °C -6.6 °C 1013.8 hPa SW 4.8 km/h 16.1 km/h 53% 0 mm 0 W/m2
05:40 1.9 °C -5.7 °C 1013.8 hPa SW 8 km/h 11.3 km/h 57% 0 mm 0 W/m2
05:46 1.8 °C -5.1 °C 1013.8 hPa South 8 km/h 11.3 km/h 60% 0 mm 0 W/m2
05:52 1.8 °C -4.7 °C 1013.8 hPa South 9.7 km/h 11.3 km/h 62% 0 mm 0 W/m2
05:58 1.8 °C -4.7 °C 1013.8 hPa South 9.7 km/h 14.5 km/h 62% 0 mm 0 W/m2
06:04 1.8 °C -4.4 °C 1013.8 hPa SSW 8 km/h 19.3 km/h 63% 0 mm 0 W/m2
06:10 1.9 °C -4.4 °C 1013.8 hPa SSW 8 km/h 8 km/h 63% 0 mm 0 W/m2
06:16 1.9 °C -4.4 °C 1013.8 hPa South 6.4 km/h 12.9 km/h 63% 0 mm 0 W/m2
06:22 2 °C -4.3 °C 1013.8 hPa SSW 8 km/h 11.3 km/h 63% 0 mm 0 W/m2
06:28 2.1 °C -4.1 °C 1013.8 hPa South 8 km/h 14.5 km/h 64% 0 mm 0 W/m2
06:34 2.1 °C -4.3 °C 1013.8 hPa SSE 8 km/h 12.9 km/h 63% 0 mm 0 W/m2
06:40 1.9 °C -4.2 °C 1013.8 hPa SSW 8 km/h 8 km/h 64% 0 mm 0 W/m2
06:46 1.7 °C -4.4 °C 1013.8 hPa South 8 km/h 11.3 km/h 64% 0 mm 0 W/m2
06:52 1.6 °C -4.1 °C 1013.8 hPa South 11.3 km/h 11.3 km/h 66% 0 mm 0 W/m2
06:58 1.3 °C -4.2 °C 1013.8 hPa South 9.7 km/h 14.5 km/h 67% 0 mm 0 W/m2
07:04 1.1 °C -4 °C 1014.1 hPa SSW 9.7 km/h 14.5 km/h 69% 0 mm 0 W/m2
07:10 0.7 °C -3.9 °C 1014.1 hPa South 8 km/h 16.1 km/h 71% 0 mm 0 W/m2
07:16 0.4 °C -3.8 °C 1014.1 hPa South 9.7 km/h 16.1 km/h 73% 0 mm 0 W/m2
07:22 0.1 °C -3.7 °C 1013.8 hPa SSW 9.7 km/h 16.1 km/h 76% 0 mm 0 W/m2
07:28 -0.2 °C -3.4 °C 1014.1 hPa SSE 8 km/h 16.1 km/h 79% 0 mm 0 W/m2
07:34 -0.3 °C -3.4 °C 1014.1 hPa South 8 km/h 12.9 km/h 80% 0 mm 0 W/m2
07:40 -0.4 °C -3.2 °C 1014.1 hPa South 8 km/h 8 km/h 82% 0 mm 0 W/m2
07:46 -0.6 °C -3.1 °C 1014.1 hPa South 9.7 km/h 9.7 km/h 83% 0 mm 7 W/m2
07:52 -0.6 °C -2.9 °C 1014.1 hPa SSW 8 km/h 8 km/h 84% 0 mm 9 W/m2
07:58 -0.6 °C -2.8 °C 1014.1 hPa South 8 km/h 8 km/h 85% 0 mm 9 W/m2
08:04 -0.7 °C -2.9 °C 1014.1 hPa South 8 km/h 16.1 km/h 85% 0 mm 11 W/m2
08:10 -0.7 °C -2.7 °C 1013.8 hPa South 8 km/h 8 km/h 86% 0 mm 14 W/m2
08:16 -0.7 °C -2.8 °C 1013.8 hPa SSE 8 km/h 8 km/h 86% 0 mm 14 W/m2
08:22 -0.7 °C -2.6 °C 1013.8 hPa SSW 8 km/h 9.7 km/h 87% 0 mm 16 W/m2
08:28 -0.7 °C -2.6 °C 1013.8 hPa South 8 km/h 9.7 km/h 87% 0 mm 21 W/m2
08:34 -0.7 °C -2.4 °C 1013.8 hPa SSW 8 km/h 9.7 km/h 88% 0 mm 21 W/m2
08:40 -0.7 °C -2.4 °C 1013.4 hPa South 8 km/h 8 km/h 88% 0 mm 21 W/m2
08:46 -0.6 °C -2.5 °C 1013.4 hPa SSE 8 km/h 9.7 km/h 87% 0 mm 25 W/m2
08:52 -0.6 °C -2.4 °C 1013.4 hPa SSE 9.7 km/h 14.5 km/h 87% 0 mm 26 W/m2
08:58 -0.6 °C -2.4 °C 1013.8 hPa SSW 9.7 km/h 14.5 km/h 87% 0 mm 25 W/m2
09:04 -0.6 °C -2.5 °C 1013.4 hPa SSE 8 km/h 11.3 km/h 87% 0 mm 28 W/m2
09:10 -0.7 °C -2.6 °C 1013.4 hPa SE 9.7 km/h 17.7 km/h 87% 0 mm 30 W/m2
09:16 -0.7 °C -2.4 °C 1013.4 hPa SSW 11.3 km/h 17.7 km/h 88% 0 mm 35 W/m2
09:22 -0.7 °C -2.4 °C 1013.4 hPa SSE 9.7 km/h 11.3 km/h 88% 0 mm 39 W/m2
09:28 -0.7 °C -2.4 °C 1013.4 hPa South 8 km/h 11.3 km/h 88% 0 mm 49 W/m2
09:34 -0.7 °C -2.4 °C 1013.4 hPa SSE 6.4 km/h 12.9 km/h 88% 0 mm 51 W/m2
09:40 -0.6 °C -2.3 °C 1013.4 hPa South 8 km/h 9.7 km/h 88% 0 mm 51 W/m2
09:46 -0.6 °C -2.3 °C 1013.4 hPa South 9.7 km/h 9.7 km/h 88% 0 mm 53 W/m2
09:52 -0.5 °C -2.2 °C 1013.4 hPa South 8 km/h 8 km/h 88% 0 mm 63 W/m2
09:58 -0.4 °C -2.1 °C 1013.1 hPa South 9.7 km/h 11.3 km/h 88% 0 mm 70 W/m2
10:04 -0.3 °C -2.2 °C 1013.1 hPa SSE 9.7 km/h 14.5 km/h 87% 0 mm 70 W/m2
10:10 -0.3 °C -2.2 °C 1013.1 hPa South 9.7 km/h 12.9 km/h 87% 0 mm 76 W/m2
10:16 -0.3 °C -2.2 °C 1013.1 hPa ESE 9.7 km/h 16.1 km/h 87% 0 mm 74 W/m2
10:22 -0.3 °C -2.2 °C 1013.1 hPa South 9.7 km/h 19.3 km/h 87% 0 mm 84 W/m2
10:28 -0.2 °C -2.1 °C 1013.1 hPa SSW 9.7 km/h 19.3 km/h 87% 0 mm 98 W/m2
10:34 -0.2 °C -2.1 °C 1013.1 hPa SW 9.7 km/h 9.7 km/h 87% 0 mm 113 W/m2
10:40 -0.1 °C -2 °C 1013.1 hPa SE 8 km/h 8 km/h 87% 0 mm 123 W/m2
10:46 -0.1 °C -1.9 °C 1013.1 hPa SW 9.7 km/h 14.5 km/h 87% 0 mm 114 W/m2
10:52 0 °C -1.9 °C 1013.1 hPa South 8 km/h 16.1 km/h 87% 0 mm 111 W/m2
10:58 0 °C -1.9 °C 1013.1 hPa South 9.7 km/h 16.1 km/h 87% 0 mm 102 W/m2
11:04 0.1 °C -2 °C 1012.8 hPa SSW 11.3 km/h 14.5 km/h 86% 0 mm 109 W/m2
11:10 0.1 °C -1.9 °C 1012.8 hPa SSE 11.3 km/h 11.3 km/h 86% 0 mm 107 W/m2
11:16 0.2 °C -2.2 °C 1012.8 hPa SW 11.3 km/h 12.9 km/h 84% 0 mm 114 W/m2
11:22 0.3 °C -2.1 °C 1012.8 hPa South 9.7 km/h 12.9 km/h 84% 0 mm 113 W/m2
11:28 0.4 °C -2.3 °C 1012.4 hPa South 11.3 km/h 22.5 km/h 82% 0 mm 104 W/m2
11:34 0.4 °C -2.3 °C 1012.4 hPa SSE 12.9 km/h 20.9 km/h 82% 0 mm 109 W/m2
11:40 0.3 °C -2.4 °C 1012.4 hPa South 9.7 km/h 9.7 km/h 82% 0 mm 104 W/m2
11:46 0.3 °C -2.3 °C 1012.4 hPa SSE 9.7 km/h 12.9 km/h 83% 0 mm 98 W/m2
11:52 0.3 °C -2.3 °C 1012.1 hPa South 11.3 km/h 11.3 km/h 83% 0 mm 95 W/m2
11:58 0.2 °C -2.2 °C 1012.1 hPa SSE 9.7 km/h 11.3 km/h 84% 0 mm 88 W/m2
12:04 0.1 °C -2.3 °C 1012.1 hPa SSE 11.3 km/h 16.1 km/h 84% 0 mm 84 W/m2
12:10 0.1 °C -2.2 °C 1011.7 hPa SSE 11.3 km/h 11.3 km/h 85% 0 mm 84 W/m2
12:16 0.1 °C -2.2 °C 1011.7 hPa WSW 9.7 km/h 12.9 km/h 85% 0 mm 88 W/m2
12:22 0.1 °C -2.2 °C 1011.4 hPa South 9.7 km/h 11.3 km/h 85% 0 mm 90 W/m2
12:28 0.1 °C -2.1 °C 1011.4 hPa South 9.7 km/h 11.3 km/h 85% 0 mm 76 W/m2
12:34 0.1 °C -2.2 °C 1011.4 hPa SE 9.7 km/h 14.5 km/h 85% 0 mm 74 W/m2
12:40 -0.1 °C -2.1 °C 1011.1 hPa SSW 9.7 km/h 14.5 km/h 86% 0 mm 74 W/m2
12:46 -0.1 °C -2.1 °C 1011.1 hPa South 9.7 km/h 14.5 km/h 86% 0 mm 76 W/m2
12:52 -0.1 °C -2 °C 1010.7 hPa SSE 9.7 km/h 12.9 km/h 87% 0 mm 83 W/m2
12:58 -0.1 °C -1.9 °C 1010.7 hPa SSE 11.3 km/h 16.1 km/h 87% 0 mm 95 W/m2
13:04 -0.1 °C -1.9 °C 1010.7 hPa South 11.3 km/h 14.5 km/h 87% 0 mm 100 W/m2
13:10 0.1 °C -1.8 °C 1010.7 hPa SE 9.7 km/h 9.7 km/h 87% 0 mm 104 W/m2
13:16 0.1 °C -1.9 °C 1010.4 hPa South 9.7 km/h 9.7 km/h 86% 0 mm 107 W/m2
13:22 0.2 °C -1.9 °C 1010.4 hPa SSW 9.7 km/h 9.7 km/h 86% 0 mm 102 W/m2
13:28 0.2 °C -1.9 °C 1010.4 hPa SW 11.3 km/h 16.1 km/h 86% 0 mm 90 W/m2
13:34 0.2 °C -1.9 °C 1010.4 hPa South 11.3 km/h 17.7 km/h 86% 0 mm 86 W/m2
13:40 0.1 °C -1.8 °C 1010.4 hPa SSW 9.7 km/h 9.7 km/h 87% 0 mm 81 W/m2
13:46 0 °C -1.9 °C 1010 hPa SSW 9.7 km/h 17.7 km/h 87% 0 mm 72 W/m2
13:52 -0.1 °C -1.8 °C 1010 hPa South 9.7 km/h 11.3 km/h 88% 0 mm 70 W/m2
13:58 -0.1 °C -1.8 °C 1010 hPa South 8 km/h 11.3 km/h 88% 0 mm 67 W/m2
14:04 -0.1 °C -1.7 °C 1009.7 hPa SSE 8 km/h 8 km/h 89% 0 mm 63 W/m2
14:10 -0.1 °C -1.7 °C 1009.7 hPa SSE 8 km/h 8 km/h 89% 0 mm 54 W/m2
14:16 -0.1 °C -1.7 °C 1009.4 hPa SSE 8 km/h 8 km/h 89% 0 mm 47 W/m2
14:22 -0.2 °C -1.6 °C 1009.4 hPa SSW 8 km/h 9.7 km/h 90% 0 mm 44 W/m2
14:28 -0.2 °C -1.6 °C 1009.4 hPa South 6.4 km/h 9.7 km/h 90% 0 mm 46 W/m2
14:34 -0.2 °C -1.6 °C 1009.4 hPa SE 6.4 km/h 11.3 km/h 90% 0 mm 44 W/m2
14:40 -0.2 °C -1.6 °C 1009.4 hPa SSE 6.4 km/h 12.9 km/h 90% 0 mm 37 W/m2
14:46 -0.2 °C -1.6 °C 1009.4 hPa SSW 4.8 km/h 12.9 km/h 90% 0 mm 33 W/m2
14:52 -0.2 °C -1.6 °C 1009 hPa SSE 4.8 km/h 11.3 km/h 90% 0 mm 35 W/m2
14:58 -0.2 °C -1.5 °C 1009 hPa SSE 6.4 km/h 11.3 km/h 91% 0 mm 40 W/m2
15:04 -0.2 °C -1.5 °C 1008.7 hPa SSE 6.4 km/h 6.4 km/h 91% 0 mm 42 W/m2
15:10 -0.2 °C -1.5 °C 1008.7 hPa SSE 6.4 km/h 6.4 km/h 91% 0 mm 47 W/m2
15:16 -0.2 °C -1.5 °C 1008.7 hPa SSE 6.4 km/h 6.4 km/h 91% 0 mm 44 W/m2
15:22 -0.2 °C -1.5 °C 1008.7 hPa SSE 4.8 km/h 4.8 km/h 91% 0 mm 44 W/m2
15:28 -0.2 °C -1.5 °C 1008.7 hPa SSE 4.8 km/h 6.4 km/h 91% 0 mm 39 W/m2
15:34 -0.2 °C -1.4 °C 1008.7 hPa South 4.8 km/h 4.8 km/h 91% 0 mm 40 W/m2
15:40 -0.2 °C -1.4 °C 1008.4 hPa SE 4.8 km/h 4.8 km/h 91% 0 mm 33 W/m2
15:46 -0.2 °C -1.5 °C 1008.4 hPa SSE 4.8 km/h 4.8 km/h 91% 0 mm 26 W/m2
15:52 -0.2 °C -1.4 °C 1008.4 hPa SE 4.8 km/h 4.8 km/h 91% 0 mm 25 W/m2
15:58 -0.2 °C -1.3 °C 1008.4 hPa SSE 4.8 km/h 4.8 km/h 92% 0 mm 25 W/m2
16:04 -0.2 °C -1.3 °C 1008.4 hPa SSE 3.2 km/h 4.8 km/h 92% 0 mm 23 W/m2
16:10 -0.1 °C -1.3 °C 1008.4 hPa SSE 4.8 km/h 4.8 km/h 92% 0 mm 23 W/m2
16:16 -0.1 °C -1.3 °C 1008 hPa SSE 4.8 km/h 4.8 km/h 92% 0 mm 19 W/m2
16:22 -0.1 °C -1.3 °C 1008 hPa SE 4.8 km/h 8 km/h 92% 0 mm 12 W/m2
16:28 -0.1 °C -1.3 °C 1008 hPa SSE 3.2 km/h 8 km/h 92% 0 mm 9 W/m2
16:34 -0.1 °C -1.3 °C 1008 hPa SSE 1.6 km/h 3.2 km/h 92% 0 mm 9 W/m2
16:40 -0.2 °C -1.3 °C 1008 hPa SSE 1.6 km/h 3.2 km/h 92% 0 mm 7 W/m2
16:46 -0.2 °C -1.3 °C 1008 hPa SSE 1.6 km/h 3.2 km/h 92% 0 mm 5 W/m2
16:52 -0.2 °C -1.4 °C 1008 hPa Calm     92% 0 mm 0 W/m2
16:58 -0.2 °C -1.4 °C 1008 hPa Calm     92% 0 mm 0 W/m2
17:04 -0.2 °C -1.4 °C 1007.7 hPa Calm     92% 0 mm 0 W/m2
17:10 -0.3 °C -1.4 °C 1007.7 hPa Calm     92% 0 mm 0 W/m2
17:16 -0.3 °C -1.5 °C 1007.7 hPa Calm     92% 0 mm 0 W/m2
17:22 -0.3 °C -1.5 °C 1008 hPa Calm     92% 0 mm 0 W/m2
17:28 -0.3 °C -1.5 °C 1007.7 hPa Calm     92% 0 mm 0 W/m2
17:34 -0.3 °C -1.5 °C 1007.7 hPa Calm   3.2 km/h 92% 0 mm 0 W/m2
17:40 -0.3 °C -1.5 °C 1007.7 hPa SSE 1.6 km/h 1.6 km/h 92% 0 mm 0 W/m2
17:46 -0.3 °C -1.5 °C 1007.7 hPa Calm   1.6 km/h 92% 0 mm 0 W/m2
17:52 -0.3 °C -1.5 °C 1007.7 hPa Calm     92% 0 mm 0 W/m2
17:58 -0.3 °C -1.5 °C 1007.7 hPa Calm   1.6 km/h 92% 0 mm 0 W/m2
18:04 -0.3 °C -1.4 °C 1007.7 hPa SSE 1.6 km/h 4.8 km/h 92% 0 mm 0 W/m2
18:10 -0.3 °C -1.4 °C 1007.7 hPa SSE 3.2 km/h 3.2 km/h 92% 0 mm 0 W/m2
18:16 -0.3 °C -1.4 °C 1007.7 hPa SSE 1.6 km/h 3.2 km/h 92% 0 mm 0 W/m2
18:22 -0.2 °C -1.4 °C 1007.7 hPa Calm     92% 0 mm 0 W/m2
18:28 -0.2 °C -1.4 °C 1007.7 hPa Calm     92% 0 mm 0 W/m2
18:34 -0.2 °C -1.4 °C 1007.7 hPa Calm     92% 0 mm 0 W/m2
18:40 -0.2 °C -1.4 °C 1007.7 hPa Calm     92% 0 mm 0 W/m2
18:46 -0.2 °C -1.4 °C 1007.7 hPa Calm     92% 0 mm 0 W/m2
18:52 -0.2 °C -1.4 °C 1007.3 hPa Calm     92% 0 mm 0 W/m2
18:58 -0.2 °C -1.4 °C 1007.3 hPa Calm     92% 0 mm 0 W/m2
19:04 -0.2 °C -1.4 °C 1007.3 hPa Calm     92% 0 mm 0 W/m2
19:10 -0.2 °C -1.4 °C 1007 hPa Calm     92% 0 mm 0 W/m2
19:16 -0.2 °C -1.4 °C 1007 hPa Calm     92% 0 mm 0 W/m2
19:22 -0.2 °C -1.4 °C 1007 hPa Calm     92% 0 mm 0 W/m2
19:28 -0.3 °C -1.4 °C 1006.7 hPa Calm     92% 0 mm 0 W/m2
19:34 -0.3 °C -1.4 °C 1007 hPa Calm     92% 0 mm 0 W/m2
19:40 -0.3 °C -1.3 °C 1006.7 hPa Calm     93% 0 mm 0 W/m2
19:46 -0.3 °C -1.3 °C 1006.7 hPa Calm     93% 0 mm 0 W/m2
19:52 -0.3 °C -1.3 °C 1006.7 hPa Calm     93% 0 mm 0 W/m2
19:58 -0.3 °C -1.3 °C 1006.7 hPa Calm     93% 0 mm 0 W/m2
20:04 -0.3 °C -1.3 °C 1006.7 hPa Calm     93% 0 mm 0 W/m2
20:10 -0.4 °C -1.4 °C 1006.3 hPa Calm     93% 0 mm 0 W/m2
20:16 -0.4 °C -1.4 °C 1006.3 hPa Calm     93% 0 mm 0 W/m2
20:22 -0.4 °C -1.4 °C 1006.3 hPa Calm     93% 0 mm 0 W/m2
20:28 -0.4 °C -1.4 °C 1006 hPa Calm     93% 0 mm 0 W/m2
20:34 -0.4 °C -1.4 °C 1006 hPa Calm     93% 0 mm 0 W/m2
20:40 -0.3 °C -1.3 °C 1006 hPa Calm     93% 0 mm 0 W/m2
20:46 -0.4 °C -1.4 °C 1005.6 hPa Calm     93% 0 mm 0 W/m2
20:52 -0.5 °C -1.5 °C 1005.6 hPa Calm     93% 0 mm 0 W/m2
20:58 -0.7 °C -1.7 °C 1005.3 hPa Calm     93% 0 mm 0 W/m2
21:04 -0.7 °C -1.7 °C 1005.3 hPa Calm     93% 0 mm 0 W/m2
21:10 -0.7 °C -1.7 °C 1005 hPa Calm     93% 0 mm 0 W/m2
21:16 -0.7 °C -1.7 °C 1005 hPa Calm     93% 0 mm 0 W/m2
21:22 -0.7 °C -1.7 °C 1005 hPa Calm     93% 0 mm 0 W/m2
21:28 -0.7 °C -1.7 °C 1005 hPa Calm     93% 0 mm 0 W/m2
21:34 -0.7 °C -1.7 °C 1005 hPa Calm     93% 0 mm 0 W/m2
21:40 -0.8 °C -1.8 °C 1005 hPa Calm     93% 0 mm 0 W/m2
21:46 -0.8 °C -1.8 °C 1005 hPa Calm     93% 0 mm 0 W/m2
21:52 -0.8 °C -1.8 °C 1005 hPa Calm     93% 0 mm 0 W/m2
21:58 -0.8 °C -1.8 °C 1005 hPa Calm     93% 0 mm 0 W/m2
22:04 -0.9 °C -1.9 °C 1005 hPa Calm     93% 0 mm 0 W/m2
22:10 -0.9 °C -1.9 °C 1005 hPa Calm     93% 0 mm 0 W/m2
22:16 -0.9 °C -1.9 °C 1005 hPa Calm     93% 0 mm 0 W/m2
22:22 -0.9 °C -1.9 °C 1005 hPa Calm     93% 0 mm 0 W/m2
22:28 -0.9 °C -1.9 °C 1005 hPa Calm     93% 0 mm 0 W/m2
22:34 -0.9 °C -1.9 °C 1005 hPa Calm     93% 0 mm 0 W/m2
22:40 -0.9 °C -1.9 °C 1005 hPa Calm     93% 0 mm 0 W/m2
22:46 -0.9 °C -1.9 °C 1005 hPa Calm     93% 0 mm 0 W/m2
22:52 -1 °C -2 °C 1004.6 hPa Calm     93% 0 mm 0 W/m2
22:58 -1.1 °C -2.1 °C 1004.6 hPa Calm     93% 0 mm 0 W/m2
23:04 -1.1 °C -2.1 °C 1004.3 hPa Calm     93% 0 mm 0 W/m2
23:10 -1.1 °C -2.1 °C 1004.3 hPa Calm     93% 0 mm 0 W/m2
23:16 -1.2 °C -2.2 °C 1004.3 hPa Calm     93% 0 mm 0 W/m2
23:22 -1.2 °C -2.2 °C 1004.3 hPa Calm     93% 0 mm 0 W/m2
23:28 -1.1 °C -2.1 °C 1004.3 hPa Calm     93% 0 mm 0 W/m2
23:34 -1.1 °C -2.1 °C 1003.9 hPa Calm     93% 0 mm 0 W/m2
23:40 -1.1 °C -2.1 °C 1003.9 hPa Calm     93% 0 mm 0 W/m2
23:46 -1.1 °C -2.1 °C 1003.9 hPa Calm     93% 0 mm 0 W/m2
23:52 -1.1 °C -2.1 °C 1003.9 hPa Calm     93% 0 mm 0 W/m2
23:58 -1.1 °C -2.1 °C 1003.9 hPa Calm     93% 0 mm 0 W/m2
Country Meadow, Clay, NY, USA
Compliments of Weather Underground - 2 mb